Time;durP1;ratioP1;P1;durP2;ratioP2;P2;SDS_P1;SDS_P2;PMS_P1;PMS_P2;Temp;Humidity;BMP_temperature;BMP_pressure;BME280_temperature;BME280_humidity;BME280_pressure;Samples;Min_cycle;Max_cycle;Signal;HPM_P1;HPM_P2
2022/01/19 00:01:29;;;;;;;73.63;28.10;;;4.70;99.90;;;;;;5139010;27;20055;-87
2022/01/19 00:03:55;;;;;;;64.68;27.45;;;5.50;99.90;;;;;;5138589;27;20039;-86
2022/01/19 00:06:21;;;;;;;75.70;28.92;;;4.80;99.90;;;;;;5157144;27;20431;-87
2022/01/19 00:08:47;;;;;;;70.82;30.35;;;4.70;99.90;;;;;;5122215;27;20106;-87
2022/01/19 00:11:13;;;;;;;69.38;27.92;;;4.70;99.90;;;;;;5148988;27;20046;-86
2022/01/19 00:13:39;;;;;;;62.42;27.63;;;4.80;99.90;;;;;;5141478;27;20370;-86
2022/01/19 00:16:05;;;;;;;70.40;29.35;;;4.80;99.90;;;;;;5151410;27;20046;-87
2022/01/19 00:18:31;;;;;;;68.38;30.90;;;4.70;99.90;;;;;;5120931;27;20086;-86
2022/01/19 00:20:57;;;;;;;65.47;28.92;;;4.80;99.90;;;;;;5144696;27;20125;-87
2022/01/19 00:23:23;;;;;;;76.75;32.47;;;4.80;99.90;;;;;;5142213;27;20056;-87
2022/01/19 00:25:51;;;;;;;69.68;28.73;;;4.70;99.90;;;;;;5140201;27;20121;-87
2022/01/19 00:28:17;;;;;;;74.43;31.13;;;4.80;99.90;;;;;;5121609;27;20091;-87
2022/01/19 00:30:45;;;;;;;76.10;30.95;;;4.70;99.90;;;;;;5137591;27;20034;-87
2022/01/19 00:33:13;;;;;;;75.32;31.80;;;4.80;99.90;;;;;;5141288;27;20039;-86
2022/01/19 00:35:39;;;;;;;71.07;31.70;;;4.80;99.90;;;;;;5156440;27;20053;-87
2022/01/19 00:38:07;;;;;;;78.53;31.08;;;4.70;99.90;;;;;;5142042;27;20052;-86
2022/01/19 00:40:58;;;;;;;90.88;32.83;;;4.80;99.90;;;;;;5126938;27;20069;-86
2022/01/19 00:43:24;;;;;;;81.63;32.80;;;4.70;99.90;;;;;;5110370;27;20091;-86
2022/01/19 00:45:52;;;;;;;80.63;34.85;;;4.80;99.90;;;;;;5122277;27;20035;-87
2022/01/19 00:48:18;;;;;;;89.90;33.78;;;4.70;99.90;;;;;;5137878;27;20077;-86
2022/01/19 00:50:44;;;;;;;86.78;34.55;;;4.70;99.90;;;;;;5156229;27;20039;-86
2022/01/19 00:53:10;;;;;;;85.68;32.83;;;4.70;99.90;;;;;;5155417;27;20435;-86
2022/01/19 00:55:36;;;;;;;73.43;29.08;;;4.80;99.90;;;;;;5125247;27;20098;-87
2022/01/19 00:58:02;;;;;;;60.50;27.23;;;4.70;99.90;;;;;;5137701;27;20050;-87
2022/01/19 01:00:32;;;;;;;71.05;30.73;;;4.70;99.90;;;;;;5152673;27;20064;-86
2022/01/19 01:02:57;;;;;;;72.05;31.33;;;4.70;99.90;;;;;;5141022;27;20393;-86
2022/01/19 01:05:23;;;;;;;76.80;33.63;;;4.60;99.90;;;;;;5155899;27;20129;-87
2022/01/19 01:07:50;;;;;;;76.57;33.45;;;4.70;99.90;;;;;;5157776;27;20073;-86
2022/01/19 01:10:18;;;;;;;72.13;31.48;;;4.80;99.90;;;;;;5129532;27;20125;-87
2022/01/19 01:12:50;;;;;;;72.05;31.17;;;4.60;99.90;;;;;;5142038;27;20378;-87
2022/01/19 01:18:20;;;;;;;69.60;31.55;;;4.70;99.90;;;;;;5150482;27;20046;-86
2022/01/19 01:20:48;;;;;;;82.15;32.50;;;4.70;99.90;;;;;;5134330;27;20039;-87
2022/01/19 01:23:14;;;;;;;77.38;32.90;;;4.60;99.90;;;;;;5132543;27;20502;-87
2022/01/19 01:25:40;;;;;;;81.53;31.13;;;4.60;99.90;;;;;;5120752;27;20042;-86
2022/01/19 01:28:06;;;;;;;71.88;28.90;;;4.70;99.90;;;;;;5125327;27;20381;-86
2022/01/19 01:30:33;;;;;;;72.75;30.20;;;4.60;99.90;;;;;;5157328;27;20481;-87
2022/01/19 01:32:58;;;;;;;77.47;30.02;;;4.60;99.90;;;;;;5136924;27;20053;-87
2022/01/19 01:35:24;;;;;;;73.45;28.50;;;4.60;99.90;;;;;;5120843;27;20042;-87
2022/01/19 01:37:50;;;;;;;73.55;29.08;;;4.60;99.90;;;;;;5120814;27;20496;-86
2022/01/19 01:40:17;;;;;;;78.65;29.67;;;4.70;99.90;;;;;;5157611;27;20050;-86
2022/01/19 01:42:44;;;;;;;72.68;26.75;;;5.50;99.90;;;;;;5140614;27;20065;-86
2022/01/19 01:45:13;;;;;;;84.00;31.90;;;4.90;99.90;;;;;;5107582;27;20043;-87
2022/01/19 01:47:44;;;;;;;83.40;32.33;;;4.60;99.90;;;;;;5150776;27;20464;-87
2022/01/19 01:55:27;;;;;;;71.97;27.70;;;4.50;99.90;;;;;;5119343;27;20058;-87
2022/01/19 01:57:53;;;;;;;66.18;26.25;;;4.50;99.90;;;;;;5124807;27;20061;-85
2022/01/19 02:00:23;;;;;;;63.63;23.02;;;4.50;99.90;;;;;;5136927;27;20447;-85
2022/01/19 02:02:49;;;;;;;61.58;24.25;;;4.60;99.90;;;;;;5149266;27;20042;-86
2022/01/19 02:05:17;;;;;;;69.72;28.88;;;4.60;99.90;;;;;;5142300;27;20122;-87
2022/01/19 02:10:31;;;;;;;64.00;28.92;;;5.10;99.90;;;;;;5157590;27;20053;-86
2022/01/19 02:15:53;;;;;;;89.07;32.47;;;4.60;99.90;;;;;;5153987;27;20042;-85
2022/01/19 02:23:53;;;;;;;99.68;37.08;;;4.60;99.90;;;;;;5152423;27;20115;-87
2022/01/19 02:26:27;;;;;;;72.93;32.60;;;4.80;99.90;;;;;;5139473;27;20060;-87
2022/01/19 02:42:17;;;;;;;86.88;34.35;;;5.30;99.90;;;;;;5129324;27;20043;-86
2022/01/19 02:49:55;;;;;;;101.10;34.05;;;4.70;99.90;;;;;;5151744;27;20082;-86
2022/01/19 02:52:23;;;;;;;98.43;34.42;;;4.70;99.90;;;;;;5131171;27;20039;-87
2022/01/19 02:54:50;;;;;;;121.30;38.95;;;5.10;99.90;;;;;;5137643;27;20034;-87
2022/01/19 02:57:16;;;;;;;108.65;36.47;;;4.70;99.90;;;;;;5140205;27;20398;-88
2022/01/19 03:10:25;;;;;;;101.43;32.97;;;4.80;99.90;;;;;;5134183;28;20054;-87
2022/01/19 03:12:51;;;;;;;111.50;36.30;;;5.00;99.90;;;;;;5131770;27;20043;-86
2022/01/19 03:15:16;;;;;;;91.97;32.20;;;4.90;99.90;;;;;;5118706;27;20046;-87
2022/01/19 03:17:42;;;;;;;86.93;30.00;;;4.50;99.90;;;;;;5119269;27;20422;-87
2022/01/19 03:20:10;;;;;;;107.88;33.42;;;4.50;99.90;;;;;;5136141;27;20043;-87
2022/01/19 03:22:52;;;;;;;102.60;33.70;;;4.50;99.90;;;;;;5118796;27;20467;-86
2022/01/19 03:25:18;;;;;;;107.43;32.35;;;4.50;99.90;;;;;;5119331;27;20047;-87
2022/01/19 03:27:46;;;;;;;99.97;28.73;;;4.40;99.90;;;;;;5119678;27;20046;-87
2022/01/19 03:30:13;;;;;;;90.32;27.27;;;4.40;99.90;;;;;;5118609;27;20043;-87
2022/01/19 03:32:38;;;;;;;109.07;30.00;;;4.50;99.90;;;;;;5119554;27;20489;-87
2022/01/19 03:35:05;;;;;;;116.53;32.17;;;4.40;99.90;;;;;;5136000;27;20047;-87
2022/01/19 03:37:30;;;;;;;125.43;31.92;;;4.30;99.90;;;;;;5118911;27;20035;-86
2022/01/19 03:39:56;;;;;;;136.80;32.53;;;4.30;99.90;;;;;;5119016;27;20528;-87
2022/01/19 03:42:22;;;;;;;108.85;29.20;;;4.30;99.90;;;;;;5137638;27;20043;-86
2022/01/19 03:44:48;;;;;;;114.43;29.92;;;4.50;99.90;;;;;;5136633;27;20096;-87
2022/01/19 03:47:14;;;;;;;88.47;25.30;;;4.30;99.90;;;;;;5135986;27;20035;-87
2022/01/19 03:49:39;;;;;;;93.65;28.38;;;4.20;99.90;;;;;;5118033;27;20055;-87
2022/01/19 03:52:06;;;;;;;112.30;30.42;;;4.20;99.90;;;;;;5118948;27;20043;-87
2022/01/19 03:54:37;;;;;;;118.50;30.73;;;4.20;99.90;;;;;;5118959;27;20130;-87
2022/01/19 03:57:03;;;;;;;107.60;29.73;;;4.20;99.90;;;;;;5134884;27;20085;-86
2022/01/19 03:59:28;;;;;;;115.05;31.25;;;4.20;99.90;;;;;;5134524;27;20050;-86
2022/01/19 04:01:56;;;;;;;117.60;30.83;;;4.80;99.90;;;;;;5139668;27;20050;-86
2022/01/19 04:09:21;;;;;;;93.80;32.17;;;4.70;99.90;;;;;;5135734;27;20079;-87
2022/01/19 04:11:47;;;;;;;94.47;30.00;;;4.10;99.90;;;;;;5136115;27;20039;-86
2022/01/19 04:14:22;;;;;;;92.88;29.83;;;4.40;99.90;;;;;;5118732;27;20057;-86
2022/01/19 04:16:49;;;;;;;90.80;30.33;;;4.10;99.90;;;;;;5118706;27;20047;-87
2022/01/19 04:21:40;;;;;;;95.80;28.55;;;4.10;99.90;;;;;;5135465;27;20047;-87
2022/01/19 04:24:06;;;;;;;96.47;29.48;;;4.50;99.90;;;;;;5118074;27;20049;-86
2022/01/19 04:26:32;;;;;;;105.93;30.42;;;4.00;99.90;;;;;;5116771;27;20043;-87
2022/01/19 04:28:58;;;;;;;102.68;32.55;;;4.10;99.90;;;;;;5118496;27;20043;-86
2022/01/19 04:31:24;;;;;;;99.13;28.58;;;4.40;99.90;;;;;;5135261;27;20082;-86
2022/01/19 04:33:50;;;;;;;101.25;29.83;;;4.10;99.90;;;;;;5136172;27;20147;-86
2022/01/19 04:43:49;;;;;;;88.07;26.92;;;4.10;99.90;;;;;;5139441;27;20043;-86
2022/01/19 04:45:09;;;;;;;75.70;26.33;;;4.00;99.90;;;;;;5155783;27;20049;-86
2022/01/19 05:06:25;;;;;;;61.38;25.98;;;4.30;99.90;;;;;;5134982;27;20062;-87
2022/01/19 05:09:11;;;;;;;66.95;27.15;;;4.20;99.90;;;;;;5116887;27;20386;-86
2022/01/19 05:14:21;;;;;;;64.15;26.77;;;4.00;99.90;;;;;;5134162;27;20043;-87
2022/01/19 05:16:47;;;;;;;64.65;26.92;;;4.00;99.90;;;;;;5134166;27;20035;-87
2022/01/19 05:19:12;;;;;;;64.82;26.90;;;4.20;99.90;;;;;;5135347;27;20084;-86
2022/01/19 05:21:38;;;;;;;67.70;26.80;;;4.40;99.90;;;;;;5116315;27;20043;-86
2022/01/19 05:24:07;;;;;;;66.53;26.45;;;4.00;99.90;;;;;;5135406;27;20038;-87
2022/01/19 05:26:35;;;;;;;60.63;25.85;;;4.00;99.90;;;;;;5116849;27;20047;-87
2022/01/19 05:29:01;;;;;;;69.85;27.65;;;4.00;99.90;;;;;;5113074;27;20379;-87
2022/01/19 05:31:27;;;;;;;58.28;25.00;;;4.00;99.90;;;;;;5096473;28;20479;-87
2022/01/19 05:33:54;;;;;;;72.63;27.45;;;4.00;99.90;;;;;;5118070;27;20126;-87
2022/01/19 05:36:19;;;;;;;70.35;27.27;;;4.00;99.90;;;;;;5136082;27;20412;-87
2022/01/19 05:38:45;;;;;;;67.38;26.52;;;4.30;99.90;;;;;;5153759;27;20049;-87
2022/01/19 05:41:11;;;;;;;67.10;27.40;;;4.30;99.90;;;;;;5128373;27;20054;-87
2022/01/19 05:43:37;;;;;;;70.13;26.65;;;4.30;99.90;;;;;;5152619;27;20045;-87
2022/01/19 05:46:02;;;;;;;69.05;27.40;;;4.00;99.90;;;;;;5154510;27;20129;-87
2022/01/19 05:48:28;;;;;;;55.25;26.05;;;4.00;99.90;;;;;;5137276;27;20042;-86
2022/01/19 05:50:54;;;;;;;64.38;26.83;;;4.00;99.90;;;;;;5116522;27;20035;-87
2022/01/19 05:53:22;;;;;;;61.53;28.35;;;4.00;99.90;;;;;;5133633;27;20047;-86
2022/01/19 05:55:48;;;;;;;65.50;28.40;;;4.00;99.90;;;;;;5120282;27;20039;-84
2022/01/19 05:58:14;;;;;;;61.53;26.02;;;4.40;99.90;;;;;;5132380;27;20058;-83
2022/01/19 06:00:40;;;;;;;60.38;27.75;;;4.20;99.90;;;;;;5134923;27;20039;-83
2022/01/19 06:03:05;;;;;;;61.03;27.95;;;4.00;99.90;;;;;;5116302;27;20471;-82
2022/01/19 06:05:33;;;;;;;66.57;28.23;;;4.00;99.90;;;;;;5112423;28;20399;-82
2022/01/19 06:08:12;;;;;;;57.80;26.05;;;4.00;99.90;;;;;;5093100;28;20436;-82
2022/01/19 06:10:44;;;;;;;65.40;27.38;;;4.50;99.90;;;;;;5092892;28;20087;-82
2022/01/19 06:13:14;;;;;;;57.83;27.50;;;4.40;99.90;;;;;;5109716;28;20043;-82
2022/01/19 06:15:40;;;;;;;50.60;25.98;;;4.50;99.90;;;;;;5109517;28;20051;-85
2022/01/19 06:18:06;;;;;;;59.38;27.70;;;4.10;99.90;;;;;;5108738;28;20435;-85
2022/01/19 06:20:32;;;;;;;55.92;26.77;;;4.00;99.90;;;;;;5092484;28;20040;-85
2022/01/19 06:22:58;;;;;;;63.17;28.23;;;4.70;99.90;;;;;;5092786;28;20504;-85
2022/01/19 06:25:24;;;;;;;53.17;27.23;;;4.00;99.90;;;;;;5091809;28;20048;-85
2022/01/19 06:27:50;;;;;;;52.45;26.80;;;4.00;99.90;;;;;;5098309;28;20043;-85
2022/01/19 06:30:15;;;;;;;51.92;25.48;;;4.50;99.90;;;;;;5095674;28;20043;-85
2022/01/19 06:32:41;;;;;;;53.88;27.80;;;3.90;99.90;;;;;;5111610;28;20040;-85
2022/01/19 06:35:08;;;;;;;61.33;26.60;;;3.90;99.90;;;;;;5083114;28;20083;-85
2022/01/19 06:37:34;;;;;;;56.50;26.60;;;3.90;99.90;;;;;;5092431;28;20119;-84
2022/01/19 06:40:01;;;;;;;52.72;26.92;;;3.90;99.90;;;;;;5092748;28;20044;-86
2022/01/19 06:42:29;;;;;;;56.55;26.48;;;4.20;99.90;;;;;;5092398;28;20071;-87
2022/01/19 06:44:54;;;;;;;52.55;26.40;;;4.20;99.90;;;;;;5075361;28;20047;-87
2022/01/19 06:47:23;;;;;;;61.03;28.40;;;3.90;99.90;;;;;;5091135;28;20044;-88
2022/01/19 06:50:25;;;;;;;56.70;26.92;;;3.90;99.90;;;;;;5046155;28;20057;-88
2022/01/19 06:53:34;;;;;;;;;;;;;;;;;;;;;
2022/01/19 06:56:37;;;;;;;55.88;27.65;;;3.90;99.90;;;;;;5115679;28;20059;-86
2022/01/19 06:59:21;;;;;;;64.07;28.88;;;3.50;99.90;;;;;;5125030;27;20058;-88
2022/01/19 07:01:47;;;;;;;53.00;27.75;;;3.90;99.90;;;;;;5136428;27;20402;-85
2022/01/19 07:05:26;;;;;;;;;;;;;;;;;;;;;
2022/01/19 07:08:40;;;;;;;;;;;4.30;99.90;;;;;;5137288;27;20111;-86
2022/01/19 07:14:53;;;;;;;56.58;26.08;;;4.10;99.90;;;;;;5129653;27;20050;-86
2022/01/19 07:22:17;;;;;;;;;;;;;;;;;;;;;
2022/01/19 07:25:21;;;;;;;63.75;27.10;;;4.40;99.90;;;;;;5069117;27;20083;-87
2022/01/19 07:28:55;;;;;;;;;;;;;;;;;;;;;
2022/01/19 07:42:57;;;;;;;61.33;27.13;;;4.00;99.90;;;;;;5053216;28;20052;-87
2022/01/19 07:50:30;;;;;;;;;;;;;;;;;;;;;
2022/01/19 07:54:06;;;;;;;59.53;28.67;;;4.00;99.90;;;;;;4936233;29;20051;-86
2022/01/19 07:57:39;;;;;;;61.22;29.48;;;4.00;99.90;;;;;;4919403;29;20047;-87
2022/01/19 08:00:53;;;;;;;69.63;32.30;;;4.00;99.90;;;;;;4922649;29;20056;-87
2022/01/19 08:03:35;;;;;;;66.88;29.45;;;4.80;99.90;;;;;;4956375;28;20046;-90
2022/01/19 08:06:01;;;;;;;68.30;31.80;;;4.10;99.90;;;;;;4990894;28;20455;-84
2022/01/19 08:08:26;;;;;;;64.95;31.27;;;4.00;99.90;;;;;;5050200;28;20045;-89
2022/01/19 08:10:52;;;;;;;61.97;31.65;;;4.00;99.90;;;;;;5103867;28;20146;-85
2022/01/19 08:13:18;;;;;;;76.28;33.17;;;4.10;99.90;;;;;;5116210;28;20131;-89
2022/01/19 08:15:44;;;;;;;69.45;32.03;;;4.20;99.90;;;;;;5097907;28;20054;-85
2022/01/19 08:18:10;;;;;;;62.67;30.35;;;3.40;99.90;;;;;;5097196;28;20036;-89
2022/01/19 08:20:40;;;;;;;64.28;31.92;;;4.10;99.90;;;;;;5098190;28;20067;-86
2022/01/19 08:23:06;;;;;;;72.07;33.15;;;4.70;99.90;;;;;;5097866;28;20066;-88
2022/01/19 08:25:32;;;;;;;64.40;31.73;;;4.50;99.90;;;;;;5096833;28;20051;-91
2022/01/19 08:27:58;;;;;;;65.93;31.60;;;4.20;99.90;;;;;;5097966;28;20040;-86
2022/01/19 08:30:24;;;;;;;68.95;32.22;;;4.80;99.90;;;;;;5115684;28;20046;-88
2022/01/19 08:32:49;;;;;;;64.53;31.92;;;4.30;99.90;;;;;;5096823;28;20181;-82
2022/01/19 08:35:15;;;;;;;64.13;31.70;;;5.00;99.90;;;;;;5115233;28;20091;-83
2022/01/19 08:37:41;;;;;;;65.30;32.22;;;4.30;99.90;;;;;;5097308;28;20409;-82
2022/01/19 08:40:08;;;;;;;63.90;33.58;;;4.30;99.90;;;;;;5114944;27;20124;-91
2022/01/19 08:42:37;;;;;;;72.82;33.58;;;4.40;99.90;;;;;;5098192;28;20040;-89
2022/01/19 08:45:08;;;;;;;66.90;33.67;;;4.40;99.90;;;;;;5131514;22;20093;-85
2022/01/19 08:47:36;;;;;;;67.10;33.13;;;4.40;99.90;;;;;;5076512;28;20394;-88
2022/01/19 08:50:09;;;;;;;68.25;33.08;;;5.00;99.90;;;;;;5075146;28;20039;-90
2022/01/19 08:52:35;;;;;;;67.65;33.97;;;4.50;99.90;;;;;;5066349;28;20063;-81
2022/01/19 08:55:01;;;;;;;64.80;33.20;;;4.50;99.90;;;;;;5074942;28;20082;-83
2022/01/19 08:57:47;;;;;;;66.55;33.85;;;4.60;99.90;;;;;;5058030;28;20131;-92
2022/01/19 09:04:04;;;;;;;78.38;35.30;;;3.80;99.90;;;;;;5001896;28;20053;-90
2022/01/19 09:06:54;;;;;;;64.93;34.58;;;5.30;99.90;;;;;;5073582;28;20048;-91
2022/01/19 09:10:01;;;;;;;;;;;;;;;;;;;;;
2022/01/19 09:13:31;;;;;;;;;;;;;;;;;;;;;
2022/01/19 09:27:40;;;;;;;;;;;;;;;;;;;;;
2022/01/19 09:38:12;;;;;;;;;;;;;;;;;;;;;
2022/01/19 09:44:52;;;;;;;71.45;35.97;;;4.80;99.90;;;;;;4938450;28;20142;-89
2022/01/19 09:53:59;;;;;;;73.47;35.08;;;4.20;99.90;;;;;;4997252;28;20068;-89
2022/01/19 09:59:27;;;;;;;68.50;36.13;;;4.90;99.90;;;;;;5013129;28;20440;-89
2022/01/19 10:02:14;;;;;;;68.93;34.60;;;4.90;99.90;;;;;;5016232;28;20041;-85
2022/01/19 10:08:54;;;;;;;64.50;33.83;;;5.00;99.90;;;;;;5063496;28;20109;-90
2022/01/19 10:22:03;;;;;;;;;;;4.50;99.90;;;;;;4977138;28;20054;-89
2022/01/19 10:31:21;;;;;;;65.78;34.78;;;4.90;99.90;;;;;;5001236;28;20143;-90
2022/01/19 10:34:31;;;;;;;68.25;35.15;;;4.30;99.90;;;;;;5072423;28;20123;-89
2022/01/19 10:37:30;;;;;;;;;;;;;;;;;;;;;
2022/01/19 10:40:03;;;;;;;60.00;35.08;;;5.00;99.90;;;;;;5072312;28;20071;-88
2022/01/19 10:43:23;;;;;;;;;;;;;;;;;;;;;
2022/01/19 10:49:53;;;;;;;69.05;36.13;;;4.30;99.90;;;;;;5031215;28;20072;-87
2022/01/19 10:53:01;;;;;;;75.38;37.42;;;5.00;99.90;;;;;;5006610;28;20404;-88
2022/01/19 10:59:56;;;;;;;70.25;36.33;;;5.80;99.90;;;;;;4952180;29;20047;-88
2022/01/19 11:02:51;;;;;;;76.18;36.88;;;5.10;99.90;;;;;;5014762;28;20053;-88
2022/01/19 11:05:46;;;;;;;67.00;36.75;;;6.00;99.90;;;;;;5014545;28;20225;-87
2022/01/19 11:08:14;;;;;;;65.68;36.25;;;5.20;99.90;;;;;;5092968;28;20043;-87
2022/01/19 11:11:56;;;;;;;68.45;40.65;;;5.20;99.90;;;;;;5075678;28;20059;-88
2022/01/19 11:18:07;;;;;;;71.25;38.40;;;5.30;99.90;;;;;;4991269;28;20049;-85
2022/01/19 11:21:17;;;;;;;66.78;37.42;;;5.40;99.90;;;;;;5015276;28;20048;-89
2022/01/19 11:24:34;;;;;;;;;;;;;;;;;;;;;
2022/01/19 11:27:18;;;;;;;70.68;38.60;;;5.50;99.90;;;;;;5091431;28;20692;-88
2022/01/19 11:33:26;;;;;;;68.05;37.17;;;6.40;99.90;;;;;;5018635;28;20051;-87
2022/01/19 11:36:23;;;;;;;71.75;37.45;;;5.60;99.90;;;;;;5069930;28;20032;-90
2022/01/19 11:43:19;;;;;;;70.10;40.47;;;5.70;99.90;;;;;;5075863;28;20056;-86
2022/01/19 11:46:03;;;;;;;69.07;37.97;;;5.70;99.90;;;;;;5050518;28;20052;-88
2022/01/19 11:49:19;;;;;;;72.43;39.63;;;5.10;99.90;;;;;;5075673;28;20570;-88
2022/01/19 11:55:39;;;;;;;75.15;40.30;;;5.80;99.90;;;;;;5020589;28;20037;-88
2022/01/19 11:58:33;;;;;;;66.97;36.67;;;6.60;99.90;;;;;;5055132;28;20056;-89
2022/01/19 12:01:35;;;;;;;69.68;38.20;;;5.70;99.90;;;;;;5014398;28;20084;-87
2022/01/19 12:04:21;;;;;;;74.63;40.00;;;5.90;99.90;;;;;;5017795;28;20555;-89
2022/01/19 12:07:13;;;;;;;72.57;39.47;;;5.80;99.90;;;;;;5040379;28;20131;-88
2022/01/19 12:09:56;;;;;;;70.22;38.78;;;5.10;99.90;;;;;;5054178;28;20124;-88
2022/01/19 12:13:55;;;;;;;75.05;38.80;;;5.80;99.90;;;;;;5054443;28;20099;-91
2022/01/19 12:19:38;;;;;;;76.18;39.75;;;5.10;99.90;;;;;;5075759;28;20049;-88
2022/01/19 12:22:44;;;;;;;68.57;38.45;;;5.70;99.90;;;;;;5041888;28;20099;-88
2022/01/19 12:32:12;;;;;;;67.18;36.58;;;5.60;99.90;;;;;;5053823;28;20041;-88
2022/01/19 12:35:33;;;;;;;71.10;37.05;;;5.60;99.90;;;;;;4996999;28;20056;-90
2022/01/19 12:38:01;;;;;;;73.05;37.35;;;4.70;99.90;;;;;;5015609;28;20053;-88
2022/01/19 12:41:08;;;;;;;68.47;37.47;;;5.60;99.90;;;;;;5000327;28;20045;-89
2022/01/19 12:47:06;;;;;;;;;;;;;;;;;;;;;
2022/01/19 12:50:14;;;;;;;67.72;37.03;;;5.60;99.90;;;;;;5053805;28;20124;-88
2022/01/19 12:53:42;;;;;;;80.90;39.03;;;5.10;99.90;;;;;;5052609;28;20045;-88
2022/01/19 12:56:12;;;;;;;63.92;35.38;;;5.80;99.90;;;;;;4980199;28;20144;-88
2022/01/19 12:59:21;;;;;;;72.32;35.92;;;5.80;99.90;;;;;;5025879;28;20079;-88
2022/01/19 13:04:47;;;;;;;69.35;35.03;;;5.50;99.90;;;;;;4990148;28;20109;-88
2022/01/19 13:13:35;;;;;;;53.97;31.90;;;6.00;99.90;;;;;;5032858;28;20053;-87
2022/01/19 13:16:31;;;;;;;54.95;31.58;;;6.00;99.90;;;;;;5033659;28;20049;-88
2022/01/19 13:19:18;;;;;;;57.65;28.52;;;5.20;99.90;;;;;;5026375;28;20050;-91
2022/01/19 13:22:19;;;;;;;56.80;28.38;;;5.90;99.90;;;;;;5033167;28;20492;-88
2022/01/19 13:25:01;;;;;;;52.40;26.98;;;5.40;99.90;;;;;;4989641;28;20541;-87
2022/01/19 13:27:46;;;;;;;58.58;27.67;;;5.10;99.90;;;;;;4988942;28;20141;-87
2022/01/19 13:34:24;;;;;;;52.60;27.33;;;5.90;99.90;;;;;;4937778;29;20130;-90
2022/01/19 13:37:19;;;;;;;51.13;26.35;;;6.00;99.90;;;;;;4984005;28;20294;-87
2022/01/19 13:47:31;;;;;;;52.40;23.25;;;5.90;99.90;;;;;;4990892;28;20527;-86
2022/01/19 13:50:27;;;;;;;;;;;;;;;;;;;;;
2022/01/19 13:53:00;;;;;;;50.17;24.52;;;6.30;99.90;;;;;;4976462;28;20050;-88
2022/01/19 13:55:50;;;;;;;45.40;23.95;;;5.80;99.90;;;;;;4975535;28;20046;-87
2022/01/19 13:59:40;;;;;;;50.15;23.80;;;6.10;99.90;;;;;;4975854;28;20172;-89
2022/01/19 14:02:31;;;;;;;50.88;24.92;;;6.40;99.90;;;;;;4936422;29;20434;-89
2022/01/19 14:08:59;;;;;;;56.97;25.13;;;5.70;99.90;;;;;;4949267;28;20057;-88
2022/01/19 14:11:38;;;;;;;;;;;;;;;;;;;;;
2022/01/19 14:18:17;;;;;;;55.33;24.73;;;6.70;99.90;;;;;;4938216;29;20047;-91
2022/01/19 14:28:08;;;;;;;54.22;21.88;;;5.70;99.90;;;;;;4877660;29;20079;-89
2022/01/19 15:08:50;;;;;;;33.65;11.45;;;5.70;99.90;;;;;;5557901;22;15075338;-85
2022/01/19 15:11:18;;;;;;;29.38;11.20;;;4.70;99.90;;;;;;6106494;23;20272;-87
2022/01/19 15:13:47;;;;;;;25.90;10.38;;;5.70;99.90;;;;;;6137524;23;20014;-86
2022/01/19 15:17:24;;;;;;;25.98;10.60;;;5.80;99.90;;;;;;6163402;23;20021;-89
2022/01/19 15:20:18;;;;;;;;;;;4.80;99.90;;;;;;6121709;23;20025;-90
2022/01/19 15:23:22;;;;;;;;;;;;;;;;;;;;;
2022/01/19 15:26:10;;;;;;;28.38;11.00;;;5.80;99.90;;;;;;6139243;23;20025;-87
2022/01/19 15:28:39;;;;;;;29.30;11.23;;;5.80;99.90;;;;;;6137841;23;20014;-87
2022/01/19 15:31:18;;;;;;;;;;;;;;;;;;;;;
2022/01/19 15:33:54;;;;;;;26.42;11.30;;;5.30;99.90;;;;;;6162207;23;20016;-88
2022/01/19 15:36:27;;;;;;;29.75;11.13;;;5.90;99.90;;;;;;6138288;23;20104;-88
2022/01/19 15:38:53;;;;;;;24.95;9.85;;;6.00;99.90;;;;;;6163209;23;20041;-88
2022/01/19 15:41:21;;;;;;;36.50;11.23;;;6.00;99.90;;;;;;6137542;23;20461;-86
2022/01/19 15:43:50;;;;;;;26.13;10.35;;;6.20;99.90;;;;;;6138288;23;20450;-88
2022/01/19 15:49:30;;;;;;;36.05;10.35;;;6.30;99.90;;;;;;6154123;23;20461;-88
2022/01/19 15:51:56;;;;;;;31.00;9.10;;;6.40;99.90;;;;;;6138043;23;20017;-87
2022/01/19 15:54:22;;;;;;;37.90;9.27;;;6.50;99.90;;;;;;6137343;23;20023;-87
2022/01/19 15:56:50;;;;;;;27.77;8.43;;;6.60;99.90;;;;;;6162822;23;20044;-85
2022/01/19 15:59:17;;;;;;;29.05;7.47;;;6.60;99.90;;;;;;6162280;23;20084;-85
2022/01/19 16:01:56;;;;;;;;;;;;;;;;;;;;;
2022/01/19 16:04:31;;;;;;;30.40;7.63;;;6.80;99.90;;;;;;6156060;23;20028;-85
2022/01/19 16:06:59;;;;;;;25.58;7.50;;;6.80;99.90;;;;;;6131492;23;20017;-86
2022/01/19 16:09:35;;;;;;;37.33;7.47;;;6.70;99.90;;;;;;6130191;23;20018;-89
2022/01/19 16:12:02;;;;;;;38.75;6.93;;;6.80;99.90;;;;;;6156190;23;20014;-86
2022/01/19 16:14:28;;;;;;;25.98;6.20;;;6.80;99.90;;;;;;6131326;23;20017;-87
2022/01/19 16:16:54;;;;;;;20.65;5.55;;;6.80;99.90;;;;;;6155141;23;20014;-85
2022/01/19 16:19:20;;;;;;;27.63;5.13;;;6.90;99.90;;;;;;6132009;23;20084;-86
2022/01/19 16:21:46;;;;;;;39.90;7.50;;;6.90;99.90;;;;;;6155808;23;20014;-86
2022/01/19 16:27:03;;;;;;;25.13;4.28;;;6.90;99.90;;;;;;6155898;23;20097;-87
2022/01/19 16:29:29;;;;;;;29.42;5.07;;;7.00;99.90;;;;;;6154964;23;20021;-87
2022/01/19 16:32:01;;;;;;;30.92;4.82;;;7.00;99.90;;;;;;6155881;23;20318;-88
2022/01/19 16:34:27;;;;;;;36.20;5.75;;;7.00;99.90;;;;;;6131296;23;20025;-86
2022/01/19 16:36:53;;;;;;;31.50;5.45;;;7.00;99.90;;;;;;6155095;23;20111;-85
2022/01/19 16:39:20;;;;;;;23.50;4.60;;;7.00;99.90;;;;;;6131591;23;20025;-85
2022/01/19 16:41:49;;;;;;;29.05;5.13;;;7.00;99.90;;;;;;6131254;23;20111;-88
2022/01/19 16:44:16;;;;;;;23.80;4.00;;;7.10;99.90;;;;;;6130361;23;20076;-85
2022/01/19 16:46:44;;;;;;;50.55;6.32;;;7.00;99.90;;;;;;6157283;23;20097;-86
2022/01/19 16:49:20;;;;;;;37.33;6.47;;;7.00;99.90;;;;;;6131067;23;20357;-86
2022/01/19 16:51:46;;;;;;;53.47;7.80;;;7.10;99.90;;;;;;6155151;23;20029;-85
2022/01/19 16:54:35;;;;;;;31.43;4.90;;;7.00;99.90;;;;;;6155556;23;20020;-85
2022/01/19 16:57:01;;;;;;;41.78;6.40;;;7.00;99.90;;;;;;6155636;23;20287;-86
2022/01/19 16:59:29;;;;;;;24.92;4.40;;;6.90;99.90;;;;;;6130694;23;20018;-82
2022/01/19 17:02:00;;;;;;;33.95;4.68;;;6.90;99.90;;;;;;6131923;23;20450;-84
2022/01/19 17:04:30;;;;;;;34.97;5.30;;;7.00;99.90;;;;;;6130027;23;20021;-85
2022/01/19 17:06:56;;;;;;;33.33;6.72;;;6.90;99.90;;;;;;6155306;23;20446;-85
2022/01/19 17:09:22;;;;;;;37.88;6.55;;;6.90;99.90;;;;;;6155159;23;20095;-85
2022/01/19 17:11:48;;;;;;;44.53;5.97;;;6.80;99.90;;;;;;6154073;23;20434;-84
2022/01/19 17:14:21;;;;;;;35.17;4.95;;;6.80;99.90;;;;;;6156894;23;20021;-83
2022/01/19 17:19:24;;;;;;;25.40;4.40;;;6.80;99.90;;;;;;6154495;23;20401;-83
2022/01/19 17:21:51;;;;;;;38.33;5.45;;;6.70;99.90;;;;;;6157200;23;20018;-84
2022/01/19 17:24:18;;;;;;;29.27;5.93;;;6.60;99.90;;;;;;6157170;23;20144;-84
2022/01/19 17:26:44;;;;;;;33.97;5.20;;;6.60;99.90;;;;;;6154337;23;20350;-85
2022/01/19 17:29:10;;;;;;;22.48;4.65;;;6.50;99.90;;;;;;6154940;23;20350;-85
2022/01/19 17:31:36;;;;;;;26.73;4.82;;;6.50;99.90;;;;;;6155026;23;20097;-85
2022/01/19 17:34:03;;;;;;;28.77;4.25;;;6.40;99.90;;;;;;6129964;23;20441;-85
2022/01/19 17:36:30;;;;;;;36.65;5.75;;;6.40;99.90;;;;;;6155183;23;20395;-85
2022/01/19 17:38:56;;;;;;;37.67;6.03;;;6.40;99.90;;;;;;6156733;23;20021;-84
2022/01/19 17:41:22;;;;;;;35.25;5.70;;;6.30;99.90;;;;;;6154143;23;20018;-84
2022/01/19 17:43:51;;;;;;;48.85;9.40;;;6.30;99.90;;;;;;6155140;23;20064;-84
2022/01/19 17:46:41;;;;;;;37.58;7.22;;;6.30;99.90;;;;;;6154962;23;20018;-85
2022/01/19 17:49:22;;;;;;;33.63;5.75;;;6.40;99.90;;;;;;6156668;23;20021;-86
2022/01/19 17:51:50;;;;;;;48.60;7.55;;;6.40;99.90;;;;;;6154974;23;20018;-89
2022/01/19 17:54:16;;;;;;;41.92;8.27;;;6.40;99.90;;;;;;6154599;23;20026;-87
2022/01/19 17:56:44;;;;;;;39.65;6.55;;;6.50;99.90;;;;;;6130648;23;20528;-88
2022/01/19 17:59:10;;;;;;;44.78;7.78;;;6.50;99.90;;;;;;6155229;23;20021;-87
2022/01/19 18:01:36;;;;;;;33.38;5.90;;;6.60;99.90;;;;;;6154894;23;20389;-87
2022/01/19 18:04:02;;;;;;;38.85;7.70;;;6.60;99.90;;;;;;6155025;23;20029;-87
2022/01/19 18:06:29;;;;;;;51.30;6.40;;;6.60;99.90;;;;;;6156327;23;20342;-87
2022/01/19 18:08:55;;;;;;;47.47;8.13;;;6.70;99.90;;;;;;6154283;23;20052;-87
2022/01/19 18:11:24;;;;;;;47.22;6.82;;;6.50;99.90;;;;;;6130659;23;20018;-87
2022/01/19 18:13:51;;;;;;;40.58;8.32;;;6.50;99.90;;;;;;6154958;23;20013;-89
2022/01/19 18:16:17;;;;;;;38.65;6.70;;;6.50;99.90;;;;;;6154293;23;20017;-87
2022/01/19 18:18:43;;;;;;;45.58;7.25;;;6.50;99.90;;;;;;6130344;23;20017;-88
2022/01/19 18:21:10;;;;;;;44.50;7.38;;;6.50;99.90;;;;;;6130134;23;20015;-90
2022/01/19 18:23:35;;;;;;;38.20;8.13;;;6.50;99.90;;;;;;6129381;23;20105;-89
2022/01/19 18:26:02;;;;;;;43.35;7.47;;;6.50;99.90;;;;;;6155041;23;20059;-81
2022/01/19 18:28:27;;;;;;;41.08;6.85;;;6.50;99.90;;;;;;6154807;23;20013;-86